createdAt,value
2022-11-30T00:01:17.720Z,22.27
2022-11-30T00:03:44.832Z,21.17
2022-11-30T00:06:14.099Z,21.35
2022-11-30T00:08:40.889Z,19.92
2022-11-30T00:11:18.251Z,20.15
2022-11-30T00:13:45.123Z,19.58
2022-11-30T00:16:11.888Z,21.42
2022-11-30T00:18:39.419Z,20.75
2022-11-30T00:21:11.420Z,20.48
2022-11-30T00:23:41.203Z,21.30
2022-11-30T00:26:10.079Z,21.15
2022-11-30T00:28:38.111Z,21.15
2022-11-30T00:31:11.062Z,20.35
2022-11-30T00:33:38.548Z,20.95
2022-11-30T00:36:17.813Z,22.30
2022-11-30T00:38:45.630Z,21.23
2022-11-30T00:41:13.047Z,21.77
2022-11-30T00:43:39.874Z,21.73
2022-11-30T00:46:09.247Z,22.08
2022-11-30T00:48:36.819Z,22.20
2022-11-30T00:51:04.039Z,22.70
2022-11-30T00:53:30.903Z,22.60
2022-11-30T00:55:57.578Z,22.60
2022-11-30T00:58:24.402Z,23.90
2022-11-30T01:00:51.352Z,22.92
2022-11-30T01:03:18.101Z,20.42
2022-11-30T01:05:44.780Z,22.40
2022-11-30T01:08:13.066Z,22.30
2022-11-30T01:10:42.171Z,21.17
2022-11-30T01:13:11.135Z,22.83
2022-11-30T01:15:40.415Z,23.65
2022-11-30T01:18:07.549Z,23.93
2022-11-30T01:20:34.756Z,24.20
2022-11-30T01:23:01.650Z,24.33
2022-11-30T01:25:28.435Z,22.70
2022-11-30T01:27:55.150Z,23.27
2022-11-30T01:30:21.866Z,21.10
2022-11-30T01:32:48.575Z,21.75
2022-11-30T01:35:15.372Z,21.25
2022-11-30T01:37:42.156Z,22.45
2022-11-30T01:40:11.727Z,21.58
2022-11-30T01:42:38.507Z,21.50
2022-11-30T01:45:07.285Z,21.95
2022-11-30T01:47:41.043Z,21.40
2022-11-30T01:50:16.180Z,21.40
2022-11-30T01:52:51.835Z,21.95
2022-11-30T01:55:32.340Z,20.75
2022-11-30T01:58:27.098Z,22.27
2022-11-30T02:00:53.982Z,22.00
2022-11-30T02:03:41.379Z,21.50
2022-11-30T02:06:08.385Z,22.45
2022-11-30T02:08:35.284Z,22.77
2022-11-30T02:11:05.647Z,22.88
2022-11-30T02:13:44.930Z,23.38
2022-11-30T02:16:26.987Z,23.98
2022-11-30T02:19:31.231Z,23.55
2022-11-30T02:22:10.726Z,23.25
2022-11-30T02:25:02.540Z,22.73
2022-11-30T02:28:06.744Z,23.95
2022-11-30T02:30:36.151Z,23.02
2022-11-30T02:33:11.895Z,23.87
2022-11-30T02:35:43.394Z,24.25
2022-11-30T02:38:11.750Z,23.60
2022-11-30T02:40:38.536Z,24.10
2022-11-30T02:43:06.626Z,24.08
2022-11-30T02:45:41.526Z,24.00
2022-11-30T02:48:10.398Z,23.88
2022-11-30T02:50:48.610Z,24.55
2022-11-30T02:53:15.394Z,23.02
2022-11-30T02:55:42.131Z,24.75
2022-11-30T02:58:08.814Z,22.02
2022-11-30T03:00:35.747Z,22.55
2022-11-30T03:03:02.613Z,24.15
2022-11-30T03:05:29.448Z,22.67
2022-11-30T03:07:56.195Z,21.33
2022-11-30T03:10:23.012Z,20.85
2022-11-30T03:12:49.854Z,21.52
2022-11-30T03:15:16.690Z,20.15
2022-11-30T03:17:43.463Z,18.65
2022-11-30T03:20:10.404Z,15.55
2022-11-30T03:22:37.198Z,16.17
2022-11-30T03:25:04.147Z,17.48
2022-11-30T03:27:30.818Z,16.25
2022-11-30T03:29:57.562Z,18.23
2022-11-30T03:32:24.269Z,18.98
2022-11-30T03:34:51.104Z,19.85
2022-11-30T03:37:18.004Z,19.45
2022-11-30T03:39:44.758Z,18.77
2022-11-30T03:42:11.471Z,17.73
2022-11-30T03:44:38.194Z,18.33
2022-11-30T03:47:05.023Z,18.20
2022-11-30T03:49:31.745Z,18.77
2022-11-30T03:51:58.421Z,20.88
2022-11-30T03:54:25.170Z,19.17
2022-11-30T03:56:51.891Z,19.77
2022-11-30T03:59:18.598Z,18.45
2022-11-30T04:01:45.342Z,19.25
2022-11-30T04:04:12.486Z,19.70
2022-11-30T04:06:40.607Z,20.52
2022-11-30T04:09:07.368Z,20.92
2022-11-30T04:11:34.131Z,20.70
2022-11-30T04:14:00.813Z,21.80
2022-11-30T04:16:27.737Z,20.73
2022-11-30T04:18:54.492Z,21.77
2022-11-30T04:21:21.332Z,19.77
2022-11-30T04:23:48.036Z,21.52
2022-11-30T04:26:16.605Z,22.58
2022-11-30T04:28:44.013Z,22.02
2022-11-30T04:31:11.587Z,23.35
2022-11-30T04:33:38.736Z,22.70
2022-11-30T04:36:07.655Z,22.90
2022-11-30T04:38:36.138Z,22.33
2022-11-30T04:41:08.218Z,21.75
2022-11-30T04:43:35.074Z,22.55
2022-11-30T04:46:01.762Z,22.85
2022-11-30T04:48:28.481Z,22.15
2022-11-30T04:51:06.890Z,23.08
2022-11-30T04:53:34.912Z,24.45
2022-11-30T04:56:06.998Z,22.67
2022-11-30T04:58:33.842Z,23.38
2022-11-30T05:01:00.620Z,22.05
2022-11-30T05:03:27.412Z,21.90
2022-11-30T05:05:54.158Z,21.83
2022-11-30T05:08:20.948Z,22.27
2022-11-30T05:10:53.422Z,22.15
2022-11-30T05:13:21.213Z,22.70
2022-11-30T05:15:48.216Z,22.58
2022-11-30T05:18:15.903Z,23.25
2022-11-30T05:20:48.131Z,20.80
2022-11-30T05:23:16.135Z,20.48
2022-11-30T05:25:44.087Z,21.38
2022-11-30T05:28:11.293Z,21.20
2022-11-30T05:30:42.108Z,19.80
2022-11-30T05:33:09.097Z,21.35
2022-11-30T05:35:36.250Z,21.27
2022-11-30T05:38:03.324Z,20.63
2022-11-30T05:40:32.507Z,21.58
2022-11-30T05:43:01.030Z,20.58
2022-11-30T05:45:28.306Z,20.23
2022-11-30T05:47:55.042Z,20.38
2022-11-30T05:50:21.921Z,20.30
2022-11-30T05:52:48.662Z,20.15
2022-11-30T05:55:15.357Z,17.95
2022-11-30T05:57:42.123Z,19.08
2022-11-30T06:00:09.964Z,19.40
2022-11-30T06:02:37.034Z,18.63
2022-11-30T06:05:04.069Z,18.38
2022-11-30T06:07:30.868Z,18.55
2022-11-30T06:09:57.749Z,19.40
2022-11-30T06:12:24.616Z,17.50
2022-11-30T06:14:51.378Z,18.33
2022-11-30T06:17:18.125Z,18.40
2022-11-30T06:19:44.877Z,17.63
2022-11-30T06:22:11.562Z,17.85
2022-11-30T06:24:38.262Z,17.30
2022-11-30T06:27:04.978Z,17.02
2022-11-30T06:29:31.661Z,18.20
2022-11-30T06:31:58.379Z,18.95
2022-11-30T06:34:25.134Z,17.27
2022-11-30T06:36:51.835Z,17.63
2022-11-30T06:39:31.488Z,18.80
2022-11-30T06:42:05.489Z,17.67
2022-11-30T06:44:32.223Z,16.95
2022-11-30T06:46:58.930Z,17.58
2022-11-30T06:49:25.706Z,16.92
2022-11-30T06:51:52.407Z,17.98
2022-11-30T06:54:19.146Z,17.38
2022-11-30T06:56:45.836Z,17.73
2022-11-30T06:59:12.570Z,17.92
2022-11-30T07:01:39.317Z,18.17
2022-11-30T07:04:06.065Z,16.48
2022-11-30T07:06:32.782Z,16.10
2022-11-30T07:08:59.489Z,15.70
2022-11-30T07:11:26.263Z,16.10
2022-11-30T07:13:52.992Z,16.50
2022-11-30T07:16:19.708Z,16.02
2022-11-30T07:18:46.449Z,16.27
2022-11-30T07:21:13.263Z,16.38
2022-11-30T07:23:58.387Z,17.98
2022-11-30T07:26:25.877Z,16.85
2022-11-30T07:28:58.701Z,17.15
2022-11-30T07:31:28.094Z,17.08
2022-11-30T07:33:56.100Z,17.15
2022-11-30T07:36:25.572Z,18.00
2022-11-30T07:38:52.666Z,17.13
2022-11-30T07:41:19.512Z,18.30
2022-11-30T07:43:46.261Z,18.35
2022-11-30T07:46:14.700Z,18.13
2022-11-30T07:48:42.948Z,17.25
2022-11-30T07:51:15.547Z,18.35
2022-11-30T07:53:42.750Z,16.42
2022-11-30T07:56:12.966Z,18.33
2022-11-30T08:01:09.519Z,17.48
2022-11-30T08:03:37.542Z,18.43
2022-11-30T08:06:09.821Z,18.52
2022-11-30T08:08:39.134Z,19.27
2022-11-30T08:11:07.695Z,18.92
2022-11-30T08:13:34.810Z,19.23
2022-11-30T08:16:03.704Z,18.55
2022-11-30T08:18:30.540Z,18.60
2022-11-30T08:21:02.381Z,18.73
2022-11-30T08:23:35.847Z,19.58
2022-11-30T08:26:23.085Z,19.10
2022-11-30T08:28:51.012Z,18.73
2022-11-30T08:31:19.288Z,18.80
2022-11-30T08:33:46.138Z,18.60
2022-11-30T08:36:18.524Z,19.38
2022-11-30T08:38:47.025Z,18.33
2022-11-30T08:41:17.015Z,18.08
2022-11-30T08:43:43.730Z,18.88
2022-11-30T08:52:15.897Z,16.75
2022-11-30T08:54:35.050Z,16.15
2022-11-30T08:57:01.898Z,17.08
2022-11-30T08:59:31.417Z,18.40
2022-11-30T09:01:58.244Z,18.95
2022-11-30T09:04:25.032Z,17.10
2022-11-30T09:06:51.756Z,16.80
2022-11-30T09:09:18.658Z,16.98
2022-11-30T09:11:45.344Z,17.67
2022-11-30T09:14:12.102Z,17.25
2022-11-30T09:16:38.855Z,17.25
2022-11-30T09:19:05.627Z,17.70
2022-11-30T09:21:32.414Z,17.65
2022-11-30T09:23:59.109Z,18.27
2022-11-30T09:26:26.025Z,17.65
2022-11-30T09:28:54.106Z,17.33
2022-11-30T09:31:26.205Z,15.45
2022-11-30T09:33:55.011Z,15.40
2022-11-30T09:36:22.858Z,15.88
2022-11-30T09:38:49.968Z,16.27
2022-11-30T09:41:28.882Z,16.05
2022-11-30T09:44:20.118Z,17.95
2022-11-30T09:47:11.216Z,17.38
2022-11-30T09:49:45.932Z,17.83
2022-11-30T09:52:25.071Z,17.23
2022-11-30T09:54:51.842Z,18.13
2022-11-30T09:57:47.949Z,18.17
2022-11-30T10:00:21.814Z,17.30
2022-11-30T10:02:53.791Z,17.88
2022-11-30T10:05:22.180Z,16.65
2022-11-30T10:08:06.229Z,16.05
2022-11-30T10:10:39.731Z,17.17
2022-11-30T10:13:06.505Z,16.50
2022-11-30T10:15:46.603Z,16.08
2022-11-30T10:18:45.444Z,17.25
2022-11-30T10:21:41.288Z,17.38
2022-11-30T10:24:38.804Z,15.68
2022-11-30T10:27:33.136Z,15.07
2022-11-30T10:30:01.675Z,15.13
2022-11-30T10:32:36.772Z,15.43
2022-11-30T10:35:29.747Z,15.27
2022-11-30T10:37:58.007Z,15.38
2022-11-30T10:40:45.915Z,14.02
2022-11-30T10:43:27.617Z,13.85
2022-11-30T10:45:54.729Z,13.05
2022-11-30T10:48:40.612Z,12.85
2022-11-30T10:51:08.155Z,14.27
2022-11-30T10:53:34.915Z,14.35
2022-11-30T10:56:06.742Z,15.00
2022-11-30T10:58:38.959Z,16.05
2022-11-30T11:01:11.720Z,15.10
2022-11-30T11:03:38.621Z,15.45
2022-11-30T11:06:23.828Z,14.93
2022-11-30T11:08:51.191Z,14.32
2022-11-30T11:11:38.928Z,14.55
2022-11-30T11:14:15.849Z,13.73
2022-11-30T11:16:56.189Z,14.30
2022-11-30T11:22:21.683Z,12.23
2022-11-30T11:24:50.569Z,13.15
2022-11-30T11:27:26.346Z,12.25
2022-11-30T11:29:59.143Z,12.48
2022-11-30T11:32:25.919Z,11.48
2022-11-30T11:34:53.517Z,12.88
2022-11-30T11:37:22.546Z,12.38
2022-11-30T11:40:12.955Z,12.15
2022-11-30T11:45:26.057Z,11.75
2022-11-30T11:48:28.770Z,11.45
2022-11-30T11:51:07.153Z,11.02
2022-11-30T11:53:48.711Z,11.43
2022-11-30T11:56:31.640Z,11.45
2022-11-30T11:59:00.528Z,13.32
2022-11-30T12:01:50.397Z,14.10
2022-11-30T12:04:41.808Z,14.40
2022-11-30T12:07:38.059Z,14.88
2022-11-30T12:10:50.580Z,14.68
2022-11-30T12:13:19.449Z,15.15
2022-11-30T12:16:14.563Z,14.57
2022-11-30T12:19:05.606Z,14.68
2022-11-30T12:21:59.563Z,16.33
2022-11-30T12:24:38.423Z,15.65
2022-11-30T12:27:20.142Z,15.27
2022-11-30T12:29:47.237Z,15.85
2022-11-30T12:32:46.100Z,14.45
2022-11-30T12:35:27.857Z,15.10
2022-11-30T12:38:10.103Z,16.90
2022-11-30T12:40:55.824Z,16.40
2022-11-30T12:43:38.134Z,16.95
2022-11-30T12:46:19.494Z,15.63
2022-11-30T12:49:13.371Z,15.65
2022-11-30T12:51:50.923Z,14.80
2022-11-30T12:54:34.598Z,14.68
2022-11-30T12:57:23.042Z,14.73
2022-11-30T13:00:16.054Z,14.40
2022-11-30T13:02:45.472Z,13.98
2022-11-30T13:05:21.312Z,13.07
2022-11-30T13:08:03.071Z,12.13
2022-11-30T13:10:29.746Z,13.48
2022-11-30T13:12:57.453Z,12.77
2022-11-30T13:15:27.690Z,12.45
2022-11-30T13:20:45.205Z,12.25
2022-11-30T13:23:18.982Z,12.80
2022-11-30T13:26:07.813Z,12.20
2022-11-30T13:28:41.043Z,13.37
2022-11-30T13:31:34.206Z,12.55
2022-11-30T13:34:01.116Z,13.48
2022-11-30T13:36:37.023Z,13.50
2022-11-30T13:39:16.418Z,13.60
2022-11-30T13:41:49.387Z,13.03
2022-11-30T13:44:45.440Z,12.60
2022-11-30T13:47:27.702Z,13.90
2022-11-30T13:50:00.726Z,12.23
2022-11-30T13:52:58.548Z,12.90
2022-11-30T13:55:43.404Z,12.38
2022-11-30T13:58:11.556Z,12.20
2022-11-30T14:00:38.245Z,12.38
2022-11-30T14:06:56.466Z,12.70
2022-11-30T14:09:41.337Z,13.27
2022-11-30T14:12:33.026Z,12.90
2022-11-30T14:15:01.085Z,13.57
2022-11-30T14:17:38.147Z,15.93
2022-11-30T14:20:16.426Z,14.68
2022-11-30T14:22:44.183Z,15.25
2022-11-30T14:25:19.857Z,14.60
2022-11-30T14:27:48.993Z,15.77
2022-11-30T14:30:21.510Z,14.43
2022-11-30T14:33:04.365Z,15.30
2022-11-30T14:35:32.010Z,14.80
2022-11-30T14:38:00.355Z,14.38
2022-11-30T14:40:33.437Z,15.15
2022-11-30T14:43:02.105Z,14.63
2022-11-30T14:45:32.047Z,15.55
2022-11-30T14:48:15.679Z,14.70
2022-11-30T14:50:54.860Z,15.90
2022-11-30T14:53:42.678Z,16.73
2022-11-30T14:56:33.309Z,17.67
2022-11-30T14:59:37.406Z,17.00
2022-11-30T15:02:11.954Z,17.52
2022-11-30T15:04:38.736Z,19.33
2022-11-30T15:07:13.219Z,18.65
2022-11-30T15:09:44.370Z,18.90
2022-11-30T15:12:15.231Z,19.58
2022-11-30T15:15:13.996Z,18.27
2022-11-30T15:17:54.454Z,19.08
2022-11-30T15:21:03.541Z,18.52
2022-11-30T15:23:30.392Z,18.80
2022-11-30T15:26:02.658Z,18.30
2022-11-30T15:28:37.707Z,17.48
2022-11-30T15:31:08.506Z,18.80
2022-11-30T15:33:42.660Z,18.05
2022-11-30T15:36:23.421Z,18.25
2022-11-30T15:38:56.601Z,18.30
2022-11-30T15:41:25.586Z,18.67
2022-11-30T15:43:54.634Z,18.85
2022-11-30T15:46:44.454Z,18.20
2022-11-30T15:49:12.622Z,18.00
2022-11-30T15:51:41.600Z,17.73
2022-11-30T15:54:08.426Z,18.35
2022-11-30T15:56:36.319Z,17.17
2022-11-30T15:59:04.764Z,17.40
2022-11-30T16:02:01.506Z,19.45
2022-11-30T16:04:48.274Z,18.50
2022-11-30T16:07:19.121Z,19.33
2022-11-30T16:09:46.271Z,17.60
2022-11-30T16:12:27.730Z,18.45
2022-11-30T16:14:54.410Z,18.60
2022-11-30T16:17:21.686Z,17.80
2022-11-30T16:19:48.776Z,18.23
2022-11-30T16:22:16.698Z,18.63
2022-11-30T16:24:43.386Z,17.02
2022-11-30T16:27:18.517Z,17.77
2022-11-30T16:29:50.646Z,18.35
2022-11-30T16:32:19.520Z,18.17
2022-11-30T16:34:47.942Z,18.17
2022-11-30T16:37:14.751Z,17.67
2022-11-30T16:39:41.493Z,17.98
2022-11-30T16:42:12.556Z,17.98
2022-11-30T16:44:39.302Z,16.95
2022-11-30T16:47:06.055Z,18.90
2022-11-30T16:49:32.759Z,18.60
2022-11-30T16:51:59.432Z,17.92
2022-11-30T16:54:26.165Z,17.98
2022-11-30T16:56:52.859Z,17.52
2022-11-30T16:59:19.571Z,18.20
2022-11-30T17:01:48.694Z,18.02
2022-11-30T17:04:22.848Z,18.13
2022-11-30T17:06:51.606Z,18.88
2022-11-30T17:09:21.154Z,18.45
2022-11-30T17:11:52.797Z,18.05
2022-11-30T17:14:21.006Z,19.17
2022-11-30T17:16:47.954Z,19.05
2022-11-30T17:19:14.698Z,20.08
2022-11-30T17:21:44.456Z,18.55
2022-11-30T17:24:12.054Z,17.73
2022-11-30T17:26:38.726Z,19.13
2022-11-30T17:29:05.752Z,18.38
2022-11-30T17:31:33.002Z,18.13
2022-11-30T17:33:59.703Z,18.90
2022-11-30T17:36:27.046Z,17.98
2022-11-30T17:38:53.826Z,18.10
2022-11-30T17:41:21.953Z,18.13
2022-11-30T17:43:49.319Z,17.83
2022-11-30T17:46:18.225Z,18.58
2022-11-30T17:48:45.362Z,19.17
2022-11-30T17:51:12.761Z,17.85
2022-11-30T17:53:40.756Z,18.60
2022-11-30T17:56:10.222Z,18.00
2022-11-30T17:58:43.884Z,17.77
2022-11-30T18:01:20.359Z,17.35
2022-11-30T18:03:48.117Z,18.05
2022-11-30T18:06:15.301Z,18.38
2022-11-30T18:08:42.514Z,18.10
2022-11-30T18:11:10.215Z,18.05
2022-11-30T18:13:37.311Z,17.55
2022-11-30T18:16:31.841Z,18.00
2022-11-30T18:18:59.689Z,18.02
2022-11-30T18:21:29.608Z,20.58
2022-11-30T18:23:57.675Z,18.35
2022-11-30T18:26:25.977Z,17.75
2022-11-30T18:28:54.885Z,17.55
2022-11-30T18:31:22.092Z,18.65
2022-11-30T18:33:48.999Z,18.55
2022-11-30T18:36:15.731Z,18.63
2022-11-30T18:38:43.922Z,18.10
2022-11-30T18:41:10.657Z,19.70
2022-11-30T18:43:38.167Z,19.35
2022-11-30T18:46:07.141Z,19.17
2022-11-30T18:48:34.441Z,19.00
2022-11-30T18:51:10.206Z,19.30
2022-11-30T18:53:36.992Z,18.77
2022-11-30T18:56:13.168Z,19.15
2022-11-30T18:58:40.893Z,19.45
2022-11-30T19:01:19.918Z,19.63
2022-11-30T19:03:52.421Z,19.20
2022-11-30T19:06:19.891Z,21.38
2022-11-30T19:08:47.771Z,20.33
2022-11-30T19:11:15.710Z,21.45
2022-11-30T19:13:42.505Z,19.35
2022-11-30T19:16:13.127Z,20.95
2022-11-30T19:18:40.161Z,20.02
2022-11-30T19:21:15.100Z,20.02
2022-11-30T19:23:42.274Z,20.52
2022-11-30T19:26:10.254Z,21.27
2022-11-30T19:28:38.783Z,20.95
2022-11-30T19:31:25.022Z,21.85
2022-11-30T19:33:54.018Z,22.17
2022-11-30T19:36:23.558Z,20.25
2022-11-30T19:38:53.815Z,21.40
2022-11-30T19:43:57.065Z,21.38
2022-11-30T19:46:28.124Z,20.65
2022-11-30T19:48:57.647Z,21.77
2022-11-30T19:51:24.398Z,21.00
2022-11-30T19:53:55.517Z,20.40
2022-11-30T19:56:23.429Z,21.08
2022-11-30T19:58:50.611Z,21.73
2022-11-30T20:01:23.968Z,22.05
2022-11-30T20:03:51.829Z,21.40
2022-11-30T20:06:19.435Z,22.80
2022-11-30T20:08:46.376Z,20.92
2022-11-30T20:11:14.507Z,20.73
2022-11-30T20:13:42.090Z,20.90
2022-11-30T20:16:13.593Z,21.00
2022-11-30T20:18:45.739Z,22.17
2022-11-30T20:21:19.580Z,20.02
2022-11-30T20:23:47.738Z,21.23
2022-11-30T20:26:19.642Z,22.55
2022-11-30T20:28:48.216Z,22.85
2022-11-30T20:31:16.846Z,22.30
2022-11-30T20:33:44.013Z,22.23
2022-11-30T20:36:12.207Z,23.13
2022-11-30T20:38:39.456Z,20.27
2022-11-30T20:41:10.604Z,20.10
2022-11-30T20:43:37.545Z,23.15
2022-11-30T20:46:22.682Z,21.65
2022-11-30T20:48:49.885Z,21.33
2022-11-30T20:51:32.804Z,21.23
2022-11-30T20:54:02.412Z,22.60
2022-11-30T20:56:29.422Z,23.02
2022-11-30T20:58:56.427Z,23.85
2022-11-30T21:01:23.770Z,21.90
2022-11-30T21:03:50.599Z,22.75
2022-11-30T21:06:17.642Z,22.48
2022-11-30T21:08:44.470Z,23.42
2022-11-30T21:11:17.312Z,22.55
2022-11-30T21:13:46.279Z,22.35
2022-11-30T21:16:15.657Z,22.77
2022-11-30T21:18:44.900Z,23.67
2022-11-30T21:21:17.955Z,22.17
2022-11-30T21:23:45.309Z,23.58
2022-11-30T21:26:23.560Z,22.95
2022-11-30T21:28:55.760Z,23.52
2022-11-30T21:31:23.445Z,23.35
2022-11-30T21:33:53.287Z,24.88
2022-11-30T21:38:52.522Z,23.15
2022-11-30T21:41:19.219Z,22.60
2022-11-30T21:43:46.040Z,21.92
2022-11-30T21:46:15.398Z,23.13
2022-11-30T21:48:43.829Z,23.37
2022-11-30T21:51:16.330Z,22.42
2022-11-30T21:53:45.421Z,23.10
2022-11-30T21:56:14.715Z,23.88
2022-11-30T21:58:44.179Z,22.63
2022-11-30T22:01:17.159Z,23.52
2022-11-30T22:03:44.481Z,22.80
2022-11-30T22:06:14.093Z,22.42
2022-11-30T22:08:41.342Z,23.13
2022-11-30T22:11:17.144Z,22.70
2022-11-30T22:13:44.638Z,22.92
2022-11-30T22:16:14.019Z,22.75
2022-11-30T22:18:42.385Z,22.70
2022-11-30T22:21:15.522Z,22.33
2022-11-30T22:23:49.066Z,22.90
2022-11-30T22:26:29.985Z,21.27
2022-11-30T22:28:59.139Z,22.88
2022-11-30T22:31:28.431Z,22.88
2022-11-30T22:33:55.904Z,23.57
2022-11-30T22:36:26.206Z,22.98
2022-11-30T22:38:58.714Z,22.45
2022-11-30T22:41:26.861Z,21.60
2022-11-30T22:43:55.033Z,23.85
2022-11-30T22:46:27.772Z,22.85
2022-11-30T22:48:55.263Z,23.35
2022-11-30T22:51:24.246Z,22.70
2022-11-30T22:53:51.954Z,22.88
2022-11-30T22:56:23.908Z,21.70
2022-11-30T22:58:56.091Z,22.42
2022-11-30T23:01:31.592Z,23.88
2022-11-30T23:04:12.082Z,22.63
2022-11-30T23:06:40.461Z,23.10
2022-11-30T23:09:10.918Z,21.83
2022-11-30T23:11:37.743Z,23.48
2022-11-30T23:14:06.188Z,22.73
2022-11-30T23:16:32.967Z,24.67
2022-11-30T23:19:00.515Z,24.05
2022-11-30T23:21:41.620Z,24.60
2022-11-30T23:24:12.172Z,23.63
2022-11-30T23:29:09.316Z,22.52
2022-11-30T23:34:05.949Z,22.95
2022-11-30T23:36:33.825Z,24.35
2022-11-30T23:39:06.246Z,25.50
2022-11-30T23:41:33.469Z,23.85
2022-11-30T23:44:00.613Z,23.02
2022-11-30T23:46:27.422Z,25.45
2022-11-30T23:48:55.639Z,25.17
2022-11-30T23:51:23.444Z,24.70
2022-11-30T23:53:50.175Z,25.27
2022-11-30T23:56:18.492Z,26.13
2022-11-30T23:58:45.605Z,25.40
